Time;durP1;ratioP1;P1;durP2;ratioP2;P2;SDS_P1;SDS_P2;PMS_P1;PMS_P2;Temp;Humidity;BMP_temperature;BMP_pressure;BME280_temperature;BME280_humidity;BME280_pressure;Samples;Min_cycle;Max_cycle;Signal;HPM_P1;HPM_P2
2021/04/03 00:00:06;;;;;;;10.77;5.72;;;;;;;5.06;37.59;101526.69;4994244;28;96836;-74
2021/04/03 00:02:33;;;;;;;10.52;5.82;;;;;;;5.08;37.37;101527.69;4961238;28;97186;-75
2021/04/03 00:05:00;;;;;;;10.77;6.28;;;;;;;5.09;37.18;101533.88;4993548;28;100037;-75
2021/04/03 00:07:27;;;;;;;9.50;5.80;;;;;;;5.10;37.16;101522.53;4979454;28;97610;-75
2021/04/03 00:09:55;;;;;;;16.83;6.65;;;;;;;5.09;37.20;101529.53;4961818;28;97824;-74
2021/04/03 00:12:22;;;;;;;20.17;6.47;;;;;;;5.11;37.17;101541.06;4979697;28;96768;-74
2021/04/03 00:14:49;;;;;;;12.23;6.00;;;;;;;5.08;37.34;101532.97;4962625;28;99343;-74
2021/04/03 00:17:15;;;;;;;14.35;6.28;;;;;;;5.11;37.13;101526.97;4962365;28;100737;-74
2021/04/03 00:19:42;;;;;;;10.30;5.93;;;;;;;5.08;37.31;101543.50;4961060;28;97437;-74
2021/04/03 00:22:09;;;;;;;14.05;5.55;;;;;;;5.02;37.56;101536.97;4979944;28;98012;-74
2021/04/03 00:24:36;;;;;;;9.57;5.88;;;;;;;4.99;37.50;101542.97;4960929;28;101099;-74
2021/04/03 00:27:05;;;;;;;12.70;5.88;;;;;;;4.97;37.73;101539.34;4960659;28;100590;-74
2021/04/03 00:29:32;;;;;;;11.95;5.63;;;;;;;4.98;37.36;101532.34;4978498;28;97275;-75
2021/04/03 00:31:59;;;;;;;15.07;6.20;;;;;;;4.99;37.50;101531.53;4944005;28;97306;-74
2021/04/03 00:34:25;;;;;;;17.80;8.75;;;;;;;4.96;37.36;101532.25;4944568;28;100005;-75
2021/04/03 00:36:52;;;;;;;10.68;5.95;;;;;;;4.94;37.64;101530.34;4960530;28;99482;-74
2021/04/03 00:39:19;;;;;;;16.75;6.43;;;;;;;4.99;37.32;101536.81;4962025;28;97578;-75
2021/04/03 00:41:46;;;;;;;11.38;5.97;;;;;;;4.97;37.70;101533.19;4961557;28;97391;-74
2021/04/03 00:44:13;;;;;;;14.02;6.68;;;;;;;4.94;37.76;101533.00;4978121;28;99411;-73
2021/04/03 00:46:40;;;;;;;13.60;6.18;;;;;;;4.92;37.63;101532.00;4978716;28;99032;-73
2021/04/03 00:49:07;;;;;;;12.00;6.20;;;;;;;4.83;38.02;101526.22;4979251;28;98124;-73
2021/04/03 00:51:34;;;;;;;16.77;6.40;;;;;;;4.91;37.52;101527.56;4945350;28;97882;-72
2021/04/03 00:54:02;;;;;;;15.65;6.95;;;;;;;4.81;37.96;101526.13;4977416;28;99404;-73
2021/04/03 00:56:30;;;;;;;16.20;6.28;;;;;;;4.81;37.83;101530.50;4944343;28;99634;-73
2021/04/03 00:58:57;;;;;;;18.73;7.72;;;;;;;4.88;38.74;101527.41;4976246;28;96876;-74
2021/04/03 01:01:26;;;;;;;15.38;5.97;;;;;;;4.81;39.00;101533.16;4945130;28;98437;-73
2021/04/03 01:03:53;;;;;;;14.95;6.50;;;;;;;4.76;38.83;101538.16;4978043;28;101323;-73
2021/04/03 01:06:20;;;;;;;15.57;6.65;;;;;;;4.72;38.41;101524.69;4984142;28;98011;-73
2021/04/03 01:08:47;;;;;;;14.50;6.47;;;;;;;4.77;38.19;101534.69;4961443;28;97369;-74
2021/04/03 01:11:14;;;;;;;17.83;6.22;;;;;;;4.80;38.20;101532.25;4962322;28;98499;-74
2021/04/03 01:13:51;;;;;;;15.95;5.75;;;;;;;4.82;38.67;101527.97;4993020;28;99288;-74
2021/04/03 01:16:30;;;;;;;13.35;6.03;;;;;;;4.86;38.28;101531.66;4961943;28;99221;-74
2021/04/03 01:19:23;;;;;;;10.02;5.45;;;;;;;4.90;38.26;101531.03;4976357;28;96860;-73
2021/04/03 01:22:44;;;;;;;19.77;6.05;;;;;;;4.90;38.91;101531.91;4962044;28;98271;-73
2021/04/03 01:25:18;;;;;;;12.93;6.10;;;;;;;4.87;38.37;101541.38;4917278;28;98736;-73
2021/04/03 01:27:55;;;;;;;16.42;6.03;;;;;;;4.83;38.46;101548.22;4884434;28;100377;-73
2021/04/03 01:30:26;;;;;;;11.73;5.32;;;;;;;4.83;38.08;101545.59;4918146;28;97096;-74
2021/04/03 01:33:04;;;;;;;10.88;5.63;;;;;;;4.79;38.32;101562.03;4984976;28;97776;-74
2021/04/03 01:35:38;;;;;;;13.40;4.88;;;;;;;4.82;38.05;101556.03;4979429;28;99109;-74
2021/04/03 01:38:09;;;;;;;10.75;5.50;;;;;;;4.73;38.34;101568.72;4968701;28;98123;-74
2021/04/03 01:40:39;;;;;;;13.02;5.57;;;;;;;4.67;38.33;101568.34;4977460;28;97419;-74
2021/04/03 01:43:09;;;;;;;17.27;5.28;;;;;;;4.62;38.36;101567.19;4960019;28;96972;-74
2021/04/03 01:45:40;;;;;;;14.73;5.28;;;;;;;4.59;38.62;101569.66;4974783;28;99793;-73
2021/04/03 01:48:09;;;;;;;10.25;5.43;;;;;;;4.56;38.38;101572.09;4944714;28;100953;-74
2021/04/03 01:50:38;;;;;;;12.10;5.03;;;;;;;4.53;38.22;101569.28;4940337;28;98080;-75
2021/04/03 01:53:08;;;;;;;10.50;5.85;;;;;;;4.45;38.46;101573.19;4960698;28;97081;-74
2021/04/03 01:55:35;;;;;;;15.88;5.35;;;;;;;4.46;38.31;101572.41;4977156;28;97559;-75
2021/04/03 01:58:04;;;;;;;19.48;5.85;;;;;;;4.42;38.29;101575.66;4950521;28;100642;-74
2021/04/03 02:00:35;;;;;;;9.23;5.20;;;;;;;4.40;38.29;101577.31;4958510;28;97566;-74
2021/04/03 02:03:04;;;;;;;12.77;4.90;;;;;;;4.34;38.80;101567.31;4958589;28;100059;-75
2021/04/03 02:05:34;;;;;;;15.00;6.03;;;;;;;4.29;38.51;101575.75;4958968;28;97796;-74
2021/04/03 02:08:19;;;;;;;13.63;5.10;;;;;;;4.21;38.55;101584.13;4976233;28;97592;-73
2021/04/03 02:11:06;;;;;;;9.40;5.30;;;;;;;4.09;39.21;101580.78;4991702;28;98126;-73
2021/04/03 02:13:36;;;;;;;14.35;4.82;;;;;;;4.04;38.63;101576.94;4964236;28;97577;-73
2021/04/03 02:16:06;;;;;;;10.30;5.32;;;;;;;4.03;38.78;101575.13;4976467;28;97908;-74
2021/04/03 02:18:38;;;;;;;11.45;5.35;;;;;;;4.05;38.80;101573.50;4959222;28;100033;-73
2021/04/03 02:21:08;;;;;;;12.38;5.32;;;;;;;4.05;38.90;101577.84;4992596;28;97641;-73
2021/04/03 02:23:37;;;;;;;11.55;4.82;;;;;;;3.97;38.93;101573.88;4946382;28;96866;-73
2021/04/03 02:26:07;;;;;;;11.80;5.53;;;;;;;3.98;38.93;101586.22;4945660;28;100586;-74
2021/04/03 02:28:36;;;;;;;9.63;5.20;;;;;;;3.96;39.04;101583.50;4962226;28;100517;-74
2021/04/03 02:31:03;;;;;;;14.77;5.35;;;;;;;3.96;39.01;101586.13;4944627;28;97716;-73
2021/04/03 02:33:31;;;;;;;20.20;6.97;;;;;;;4.03;39.61;101588.31;4990696;28;97280;-73
2021/04/03 02:36:00;;;;;;;18.52;5.45;;;;;;;3.94;39.91;101592.09;4960146;28;101162;-73
2021/04/03 02:38:27;;;;;;;15.77;5.38;;;;;;;3.87;39.65;101589.91;4976166;28;97958;-73
2021/04/03 02:41:05;;;;;;;13.70;6.80;;;;;;;3.83;39.47;101594.09;4992823;28;97541;-73
2021/04/03 02:43:41;;;;;;;14.02;5.82;;;;;;;3.79;39.69;101592.06;4975951;28;97231;-73
2021/04/03 02:46:15;;;;;;;14.88;5.65;;;;;;;3.77;39.37;101588.44;4950845;28;99325;-73
2021/04/03 02:48:48;;;;;;;13.90;6.53;;;;;;;3.80;39.29;101606.16;4974963;28;98922;-73
2021/04/03 02:51:23;;;;;;;16.13;5.50;;;;;;;3.73;39.93;101599.59;4968586;28;98041;-73
2021/04/03 02:53:51;;;;;;;11.98;5.70;;;;;;;3.68;39.87;101606.28;4994032;28;97977;-73
2021/04/03 02:56:18;;;;;;;14.43;5.32;;;;;;;3.62;39.88;101611.16;4962478;28;97731;-73
2021/04/03 02:58:46;;;;;;;15.00;4.82;;;;;;;3.58;39.63;101609.16;4946300;28;100845;-73
2021/04/03 03:01:17;;;;;;;8.32;4.57;;;;;;;3.59;39.25;101615.31;4946399;28;97789;-73
2021/04/03 03:03:54;;;;;;;14.55;4.68;;;;;;;3.58;39.83;101619.69;4962630;28;97648;-74
2021/04/03 03:06:23;;;;;;;13.20;4.85;;;;;;;3.56;39.21;101620.38;4958793;28;100290;-74
2021/04/03 03:08:52;;;;;;;26.73;6.63;;;;;;;3.68;40.06;101618.53;4961002;28;97673;-73
2021/04/03 03:11:24;;;;;;;12.27;5.03;;;;;;;3.60;40.52;101618.06;4946459;28;98548;-74
2021/04/03 03:13:53;;;;;;;16.25;6.35;;;;;;;3.58;40.18;101638.09;4963303;28;98380;-74
2021/04/03 03:16:21;;;;;;;13.18;5.32;;;;;;;3.52;40.25;101626.25;4993399;28;100896;-74
2021/04/03 03:18:49;;;;;;;22.83;5.80;;;;;;;3.46;40.15;101628.53;4962989;28;98508;-74
2021/04/03 03:21:17;;;;;;;10.85;5.18;;;;;;;3.50;39.68;101627.88;4962302;28;98285;-74
2021/04/03 03:23:47;;;;;;;10.95;4.55;;;;;;;3.42;40.53;101639.66;4951610;28;98983;-74
2021/04/03 03:26:15;;;;;;;13.95;5.30;;;;;;;3.40;39.93;101633.41;4962394;28;97987;-73
2021/04/03 03:28:42;;;;;;;17.02;5.53;;;;;;;3.41;39.72;101638.75;4961133;28;97556;-73
2021/04/03 03:31:10;;;;;;;14.63;5.53;;;;;;;3.39;40.02;101636.81;4968909;28;97959;-73
2021/04/03 03:33:37;;;;;;;12.18;5.80;;;;;;;3.37;39.63;101647.25;4961100;28;98022;-74
2021/04/03 03:36:07;;;;;;;13.43;5.20;;;;;;;3.38;39.40;101643.84;4946250;28;100699;-73
2021/04/03 03:38:37;;;;;;;15.65;5.30;;;;;;;3.40;39.55;101655.38;4970268;28;98115;-72
2021/04/03 03:41:06;;;;;;;11.50;4.88;;;;;;;3.38;39.55;101654.34;4996005;28;98104;-72
2021/04/03 03:43:37;;;;;;;14.90;5.85;;;;;;;3.44;39.37;101662.63;4994224;28;97296;-74
2021/04/03 03:46:06;;;;;;;9.80;4.75;;;;;;;3.48;39.76;101664.63;4944156;28;99370;-74
2021/04/03 03:48:33;;;;;;;11.10;6.25;;;;;;;3.47;40.09;101652.31;4960715;28;100157;-73
2021/04/03 03:50:59;;;;;;;14.27;5.57;;;;;;;3.43;39.68;101654.63;4950730;28;96829;-74
2021/04/03 03:53:29;;;;;;;17.05;5.35;;;;;;;3.38;39.66;101663.97;4969657;28;98780;-73
2021/04/03 03:55:57;;;;;;;15.20;5.25;;;;;;;3.37;39.49;101660.41;4944517;28;99444;-73
2021/04/03 03:58:25;;;;;;;16.10;5.35;;;;;;;3.33;39.62;101653.13;4961628;28;99275;-73
2021/04/03 04:00:52;;;;;;;11.93;5.43;;;;;;;3.32;39.70;101645.13;4958462;28;96850;-73
2021/04/03 04:03:22;;;;;;;10.55;5.13;;;;;;;3.24;40.52;101652.53;4943811;28;98091;-73
2021/04/03 04:05:53;;;;;;;12.70;5.22;;;;;;;3.23;39.73;101656.91;4977602;28;97939;-73
2021/04/03 04:08:25;;;;;;;17.60;5.45;;;;;;;3.22;39.94;101662.09;4953905;28;98688;-72
2021/04/03 04:10:59;;;;;;;11.13;5.47;;;;;;;3.22;39.47;101657.72;4993457;28;97021;-73
2021/04/03 04:13:28;;;;;;;16.55;5.50;;;;;;;3.22;39.66;101659.44;4995914;28;97252;-73
2021/04/03 04:15:56;;;;;;;14.07;6.10;;;;;;;3.25;39.70;101651.75;4945320;28;99670;-73
2021/04/03 04:18:23;;;;;;;18.15;6.07;;;;;;;3.29;39.67;101651.13;4980536;28;99264;-74
2021/04/03 04:20:53;;;;;;;22.73;7.90;;;;;;;3.37;40.40;101639.38;4943199;28;96813;-74
2021/04/03 04:23:27;;;;;;;17.45;6.85;;;;;;;3.37;40.66;101652.53;4962041;28;97348;-73
2021/04/03 04:25:57;;;;;;;16.33;6.03;;;;;;;3.33;39.96;101655.75;4953894;28;98739;-75
2021/04/03 04:28:28;;;;;;;13.10;5.28;;;;;;;3.28;40.36;101662.44;4945346;28;99552;-72
2021/04/03 04:30:58;;;;;;;12.05;5.78;;;;;;;3.25;40.17;101662.25;4975463;28;97891;-73
2021/04/03 04:33:27;;;;;;;24.77;7.30;;;;;;;3.35;41.04;101669.91;4958150;28;97956;-73
2021/04/03 04:35:56;;;;;;;15.02;6.20;;;;;;;3.33;40.71;101676.78;4967191;28;98806;-74
2021/04/03 04:38:27;;;;;;;13.45;5.88;;;;;;;3.29;40.56;101676.53;4956298;28;100564;-73
2021/04/03 04:40:54;;;;;;;13.50;5.85;;;;;;;3.26;41.06;101678.97;4959880;28;98225;-73
2021/04/03 04:43:22;;;;;;;19.05;8.20;;;;;;;3.24;40.74;101678.84;4960907;28;98036;-72
2021/04/03 04:45:53;;;;;;;28.70;8.40;;;;;;;3.24;40.44;101685.03;4971482;28;100749;-74
2021/04/03 04:48:27;;;;;;;14.75;5.72;;;;;;;3.28;40.36;101688.75;4959642;28;99177;-72
2021/04/03 04:51:02;;;;;;;15.77;5.30;;;;;;;3.20;40.79;101695.25;4960244;28;97897;-74
2021/04/03 04:53:32;;;;;;;11.75;4.82;;;;;;;3.19;40.78;101688.16;4945924;28;97401;-72
2021/04/03 04:56:00;;;;;;;14.55;5.40;;;;;;;3.15;40.13;101699.28;4962027;28;97938;-73
2021/04/03 04:58:34;;;;;;;11.02;5.78;;;;;;;3.17;40.60;101702.94;4960209;28;99592;-73
2021/04/03 05:01:03;;;;;;;11.20;5.53;;;;;;;3.14;40.65;101710.63;4933305;28;96890;-73
2021/04/03 05:03:37;;;;;;;12.38;4.97;;;;;;;3.11;40.47;101706.06;4945054;28;97656;-74
2021/04/03 05:06:04;;;;;;;14.23;5.68;;;;;;;3.10;40.06;101704.25;4959244;28;97585;-73
2021/04/03 05:08:31;;;;;;;10.70;4.68;;;;;;;3.05;40.66;101713.56;4975062;28;98495;-73
2021/04/03 05:10:58;;;;;;;14.13;5.18;;;;;;;3.08;39.81;101719.03;4977939;28;97642;-73
2021/04/03 05:13:25;;;;;;;9.95;5.32;;;;;;;3.05;40.48;101726.72;4943239;28;96915;-73
2021/04/03 05:15:56;;;;;;;12.38;5.43;;;;;;;3.03;40.47;101722.16;4976028;28;98280;-72
2021/04/03 05:18:24;;;;;;;11.10;5.30;;;;;;;3.04;40.32;101716.06;4977625;28;97987;-73
2021/04/03 05:20:51;;;;;;;11.73;5.88;;;;;;;3.02;39.89;101722.97;4943997;28;97224;-73
2021/04/03 05:23:18;;;;;;;20.98;6.88;;;;;;;3.05;40.09;101741.56;4978735;28;97545;-73
2021/04/03 05:25:46;;;;;;;16.65;6.07;;;;;;;3.11;40.25;101736.72;4977036;28;98338;-73
2021/04/03 05:28:14;;;;;;;13.45;5.72;;;;;;;3.08;40.26;101744.41;4976940;28;99599;-73
2021/04/03 05:30:41;;;;;;;9.50;5.38;;;;;;;3.09;40.04;101743.59;4985095;28;97033;-73
2021/04/03 05:33:09;;;;;;;10.98;5.60;;;;;;;3.11;39.84;101749.88;4948759;28;97542;-73
2021/04/03 05:35:37;;;;;;;14.82;6.22;;;;;;;3.07;39.65;101743.50;4981819;28;98530;-73
2021/04/03 05:38:04;;;;;;;17.48;6.72;;;;;;;3.11;40.08;101757.78;4980084;28;97818;-73
2021/04/03 05:40:31;;;;;;;16.40;6.07;;;;;;;3.09;39.69;101756.75;4962603;28;97059;-72
2021/04/03 05:42:58;;;;;;;16.50;5.97;;;;;;;3.06;40.19;101752.19;4967000;28;98581;-72
2021/04/03 05:45:27;;;;;;;13.50;6.30;;;;;;;3.02;40.09;101754.53;4960981;28;99649;-74
2021/04/03 05:47:54;;;;;;;20.25;6.20;;;;;;;3.02;40.93;101759.78;4945929;28;100617;-73
2021/04/03 05:50:21;;;;;;;17.45;6.70;;;;;;;3.03;40.29;101767.78;4957991;28;98110;-73
2021/04/03 05:52:51;;;;;;;16.65;5.78;;;;;;;3.09;40.35;101764.66;4976400;28;97470;-73
2021/04/03 05:55:18;;;;;;;13.20;5.80;;;;;;;3.14;39.79;101773.75;4992465;28;97907;-73
2021/04/03 05:57:45;;;;;;;12.18;5.80;;;;;;;3.21;39.54;101773.34;4958424;28;98917;-73
2021/04/03 06:00:13;;;;;;;9.40;6.00;;;;;;;3.23;39.97;101784.88;4943379;28;97172;-73
2021/04/03 06:02:41;;;;;;;17.73;6.47;;;;;;;3.28;39.49;101782.56;4935908;28;98646;-73
2021/04/03 06:05:09;;;;;;;13.93;6.35;;;;;;;3.28;39.76;101793.97;4976993;28;98052;-73
2021/04/03 06:07:36;;;;;;;49.28;15.98;;;;;;;3.28;39.33;101793.97;4990478;28;97930;-73
2021/04/03 06:10:06;;;;;;;14.50;6.63;;;;;;;3.30;39.55;101797.63;4990187;28;96964;-74
2021/04/03 06:12:41;;;;;;;20.30;7.07;;;;;;;3.25;40.58;101793.78;4975567;28;99212;-74
2021/04/03 06:15:12;;;;;;;13.68;5.88;;;;;;;3.23;39.76;101803.28;4990906;28;99223;-73
2021/04/03 06:17:39;;;;;;;15.52;6.72;;;;;;;3.24;40.06;101797.19;4975538;28;97708;-72
2021/04/03 06:20:07;;;;;;;13.55;6.78;;;;;;;3.27;40.28;101807.94;4954712;28;97174;-73
2021/04/03 06:22:42;;;;;;;14.52;5.28;;;;;;;3.30;40.20;101825.63;4974038;28;97713;-73
2021/04/03 06:25:11;;;;;;;9.43;5.18;;;;;;;3.33;39.56;101821.47;4975600;28;99051;-74
2021/04/03 06:27:38;;;;;;;11.90;5.60;;;;;;;3.39;39.58;101827.16;4973798;28;97512;-74
2021/04/03 06:30:30;;;;;;;18.83;5.80;;;;;;;3.46;40.02;101824.13;4942999;28;98302;-74
2021/04/03 06:33:12;;;;;;;59.42;23.20;;;;;;;3.54;40.28;101816.72;4961132;28;98802;-73
2021/04/03 06:35:39;;;;;;;21.33;7.95;;;;;;;3.61;39.58;101825.13;4962931;28;97985;-74
2021/04/03 06:38:18;;;;;;;9.93;5.97;;;;;;;3.69;40.19;101828.31;4978974;28;99312;-74
2021/04/03 06:40:46;;;;;;;10.60;5.53;;;;;;;3.73;39.29;101828.59;4981365;28;97843;-74
2021/04/03 06:43:16;;;;;;;9.60;5.43;;;;;;;3.76;39.39;101831.44;4963687;28;97294;-74
2021/04/03 06:45:44;;;;;;;12.25;5.90;;;;;;;3.76;39.41;101831.44;4961407;28;98854;-73
2021/04/03 06:48:13;;;;;;;14.38;6.10;;;;;;;3.85;39.53;101842.56;4944871;28;99280;-74
2021/04/03 06:50:42;;;;;;;9.30;6.00;;;;;;;3.91;39.42;101848.25;4981434;28;97168;-73
2021/04/03 06:53:10;;;;;;;8.60;6.13;;;;;;;3.97;39.00;101847.72;4979409;28;98088;-73
2021/04/03 06:55:38;;;;;;;11.32;6.20;;;;;;;4.03;39.02;101848.09;4957711;28;97376;-73
2021/04/03 06:58:07;;;;;;;13.98;6.20;;;;;;;4.07;38.84;101847.50;4951694;28;100890;-73
2021/04/03 07:00:35;;;;;;;8.45;5.97;;;;;;;4.12;38.77;101846.97;4961971;28;97443;-73
2021/04/03 07:03:06;;;;;;;12.90;5.65;;;;;;;4.18;38.72;101847.38;4978743;28;97643;-73
2021/04/03 07:05:34;;;;;;;9.07;5.45;;;;;;;4.26;38.63;101842.59;4943588;28;99389;-74
2021/04/03 07:08:04;;;;;;;10.02;5.47;;;;;;;4.31;39.20;101846.41;4964766;28;98577;-73
2021/04/03 07:10:32;;;;;;;10.15;5.03;;;;;;;4.40;38.72;101846.06;4945518;28;97565;-74
2021/04/03 07:12:59;;;;;;;11.43;5.70;;;;;;;4.45;38.61;101845.56;4980893;28;97769;-74
2021/04/03 07:15:28;;;;;;;13.43;6.15;;;;;;;4.54;38.56;101843.50;4962960;28;99410;-75
2021/04/03 07:17:56;;;;;;;12.52;6.20;;;;;;;4.58;38.44;101847.22;4976362;28;99632;-75
2021/04/03 07:20:25;;;;;;;8.18;5.13;;;;;;;4.59;38.92;101849.94;4962205;28;97659;-74
2021/04/03 07:22:55;;;;;;;13.48;6.38;;;;;;;4.83;38.02;101859.38;4996551;28;97935;-74
2021/04/03 07:25:26;;;;;;;10.60;5.32;;;;;;;4.91;37.93;101862.47;4977902;28;96950;-74
2021/04/03 07:27:53;;;;;;;9.10;5.63;;;;;;;5.03;37.88;101860.59;4980836;28;98317;-74
2021/04/03 07:30:41;;;;;;;15.60;7.57;;;;;;;5.20;38.17;101862.56;4961418;28;97028;-74
2021/04/03 07:33:09;;;;;;;8.02;5.60;;;;;;;5.29;37.52;101857.81;4962801;28;97890;-74
2021/04/03 07:35:37;;;;;;;10.73;5.13;;;;;;;5.33;37.41;101861.53;4981409;28;97672;-73
2021/04/03 07:38:08;;;;;;;9.15;4.90;;;;;;;5.36;37.23;101864.38;4963660;28;99199;-74
2021/04/03 07:40:37;;;;;;;13.15;5.13;;;;;;;5.39;37.33;101854.00;4979760;28;97326;-74
2021/04/03 07:43:05;;;;;;;8.80;5.95;;;;;;;5.50;37.13;101856.47;4964471;28;97003;-75
2021/04/03 07:45:47;;;;;;;8.50;5.88;;;;;;;5.65;37.47;101864.38;4961034;28;99860;-75
2021/04/03 07:48:48;;;;;;;11.48;5.85;;;;;;;5.73;37.29;101860.41;4961659;28;98989;-75
2021/04/03 07:51:17;;;;;;;9.02;5.50;;;;;;;5.78;37.08;101854.56;4975165;28;97407;-73
2021/04/03 07:53:45;;;;;;;10.35;5.63;;;;;;;5.85;36.80;101867.31;4947578;28;96714;-74
2021/04/03 07:56:13;;;;;;;11.32;6.05;;;;;;;5.87;36.78;101868.31;4993881;28;100365;-74
2021/04/03 07:58:47;;;;;;;12.27;5.13;;;;;;;5.93;36.92;101879.22;4977416;28;98421;-73
2021/04/03 08:01:26;;;;;;;15.25;5.60;;;;;;;5.94;36.63;101881.03;4961795;28;96861;-75
2021/04/03 08:03:58;;;;;;;8.00;4.72;;;;;;;6.02;36.79;101876.19;4995093;28;97049;-74
2021/04/03 08:06:33;;;;;;;7.15;4.80;;;;;;;6.08;36.31;101880.13;4960581;28;99083;-73
2021/04/03 08:09:01;;;;;;;4.80;4.35;;;;;;;6.08;36.43;101880.13;4980438;28;97975;-75
2021/04/03 08:11:29;;;;;;;8.45;3.80;;;;;;;6.12;36.07;101879.44;4981628;28;97754;-76
2021/04/03 08:13:57;;;;;;;9.43;4.05;;;;;;;6.13;35.87;101875.06;4979436;28;97485;-75
2021/04/03 08:16:27;;;;;;;8.98;4.13;;;;;;;6.23;35.96;101878.31;4962060;28;99776;-76
2021/04/03 08:18:56;;;;;;;10.57;4.10;;;;;;;6.33;35.52;101879.78;4994660;28;99430;-74
2021/04/03 08:21:24;;;;;;;8.23;4.25;;;;;;;6.37;35.59;101872.91;4974657;28;97559;-75
2021/04/03 08:23:53;;;;;;;7.30;4.22;;;;;;;6.50;35.40;101880.72;4947394;28;97472;-75
2021/04/03 08:26:21;;;;;;;6.43;3.80;;;;;;;6.39;35.93;101879.19;4987183;28;101012;-75
2021/04/03 08:28:48;;;;;;;8.05;4.05;;;;;;;6.40;35.57;101881.03;4959111;28;100190;-74
2021/04/03 08:31:17;;;;;;;4.95;4.15;;;;;;;6.42;35.37;101887.28;4976175;28;98279;-75
2021/04/03 08:33:47;;;;;;;7.30;3.97;;;;;;;6.53;35.56;101896.72;4961837;28;98334;-74
2021/04/03 08:36:15;;;;;;;4.95;4.45;;;;;;;6.63;35.37;101888.50;4981723;28;97540;-75
2021/04/03 08:38:44;;;;;;;14.30;8.30;;;;;;;6.72;35.40;101896.94;4964991;28;97894;-74
2021/04/03 08:41:11;;;;;;;6.05;4.63;;;;;;;6.76;35.33;101904.22;4979586;28;98217;-73
2021/04/03 08:43:37;;;;;;;6.20;3.85;;;;;;;6.84;34.76;101900.22;4977302;28;97526;-74
2021/04/03 08:46:11;;;;;;;3.42;3.13;;;;;;;6.92;34.64;101885.69;4956589;28;98156;-74
2021/04/03 08:48:39;;;;;;;5.03;3.30;;;;;;;7.02;34.81;101894.19;4980435;28;97932;-74
2021/04/03 08:51:08;;;;;;;6.47;3.75;;;;;;;7.08;34.66;101888.31;4980493;28;97165;-74
2021/04/03 08:53:39;;;;;;;4.50;3.60;;;;;;;7.10;34.38;101894.59;4977659;28;97243;-74
2021/04/03 08:56:07;;;;;;;5.13;3.63;;;;;;;7.13;34.78;101881.50;4956911;28;100481;-74
2021/04/03 08:58:34;;;;;;;5.85;3.90;;;;;;;7.25;34.39;101882.16;4957893;28;99289;-74
2021/04/03 09:01:02;;;;;;;5.68;3.40;;;;;;;7.45;33.86;101892.06;4958210;28;96951;-74
2021/04/03 09:03:29;;;;;;;8.07;4.63;;;;;;;7.53;33.71;101890.72;4961218;28;96974;-76
2021/04/03 09:05:56;;;;;;;6.45;4.18;;;;;;;7.61;33.83;101893.75;4977107;28;100814;-75
2021/04/03 09:08:25;;;;;;;5.32;3.65;;;;;;;7.71;33.73;101896.06;4993624;28;98848;-77
2021/04/03 09:10:54;;;;;;;7.40;3.15;;;;;;;7.80;33.39;101883.25;4949108;28;98225;-75
2021/04/03 09:13:21;;;;;;;3.35;2.85;;;;;;;7.88;33.10;101887.19;4960392;28;97321;-76
2021/04/03 09:15:48;;;;;;;3.90;3.05;;;;;;;7.92;33.24;101881.19;4960820;28;102118;-75
2021/04/03 09:18:15;;;;;;;4.38;3.25;;;;;;;8.00;33.14;101878.09;4977785;28;98636;-76
2021/04/03 09:20:49;;;;;;;4.20;2.72;;;;;;;8.05;32.84;101884.53;4939157;28;97837;-77
2021/04/03 09:23:22;;;;;;;3.65;3.28;;;;;;;8.07;32.63;101888.19;4976793;28;97787;-76
2021/04/03 09:25:59;;;;;;;5.60;3.40;;;;;;;8.14;32.39;101890.28;4958438;28;100497;-78
2021/04/03 09:28:33;;;;;;;4.90;3.53;;;;;;;8.19;32.23;101882.53;4960925;28;101687;-76
2021/04/03 09:31:00;;;;;;;5.15;3.88;;;;;;;8.19;32.82;101887.84;4949106;28;97647;-78
2021/04/03 09:33:29;;;;;;;3.40;3.10;;;;;;;8.21;32.49;101855.28;4964561;28;98478;-77
2021/04/03 09:36:09;;;;;;;2.78;2.55;;;;;;;8.13;26.94;101888.44;4964467;28;98413;-78
2021/04/03 09:38:37;;;;;;;2.53;2.33;;;;;;;8.19;31.75;101879.88;4986566;28;98637;-78
2021/04/03 09:41:21;;;;;;;2.80;2.67;;;;;;;8.26;30.58;101870.50;4965937;28;96899;-78
2021/04/03 09:43:48;;;;;;;2.67;2.58;;;;;;;8.28;31.67;101876.78;4983378;28;96695;-78
2021/04/03 09:46:15;;;;;;;3.17;2.78;;;;;;;8.31;31.55;101872.53;4978485;28;98112;-77
2021/04/03 09:48:42;;;;;;;2.33;2.22;;;;;;;8.35;31.32;101858.56;4949049;28;99441;-75
2021/04/03 09:51:10;;;;;;;3.70;2.28;;;;;;;8.45;31.24;101857.25;4984189;28;98198;-76
2021/04/03 09:53:37;;;;;;;2.47;2.25;;;;;;;8.53;31.08;101855.91;4953893;28;97669;-76
2021/04/03 09:56:05;;;;;;;2.53;2.45;;;;;;;8.59;31.00;101858.84;4965933;28;102153;-75
2021/04/03 09:58:33;;;;;;;4.20;2.30;;;;;;;8.67;30.80;101852.16;4960223;28;100992;-76
2021/04/03 10:01:00;;;;;;;2.30;2.20;;;;;;;8.72;30.62;101855.91;4996581;28;97349;-76
2021/04/03 10:03:27;;;;;;;8.95;4.85;;;;;;;8.74;30.40;101862.19;4981218;28;97610;-78
2021/04/03 10:05:55;;;;;;;4.22;3.45;;;;;;;8.79;30.28;101858.91;4980610;28;100798;-78
2021/04/03 10:08:22;;;;;;;2.78;2.63;;;;;;;8.86;30.32;101858.34;4987838;28;98586;-75
2021/04/03 10:10:48;;;;;;;2.60;2.40;;;;;;;8.91;30.13;101848.88;4987995;28;97021;-75
2021/04/03 10:13:15;;;;;;;2.38;2.28;;;;;;;8.97;30.09;101858.84;4986393;28;97839;-77
2021/04/03 10:15:43;;;;;;;2.22;2.10;;;;;;;8.97;29.75;101859.75;4967161;28;99524;-75
2021/04/03 10:18:13;;;;;;;2.33;2.22;;;;;;;9.04;29.80;101858.28;4966598;28;97756;-74
2021/04/03 10:20:40;;;;;;;2.25;2.13;;;;;;;9.04;29.56;101856.50;4968519;28;96893;-76
2021/04/03 10:23:07;;;;;;;2.20;2.10;;;;;;;9.05;29.49;101846.81;4999199;28;97538;-75
2021/04/03 10:25:34;;;;;;;2.60;2.40;;;;;;;9.05;29.27;101850.38;4980298;28;97722;-76
2021/04/03 10:28:02;;;;;;;2.30;2.22;;;;;;;9.05;29.22;101853.03;4956133;28;100142;-75
2021/04/03 10:30:29;;;;;;;4.00;2.17;;;;;;;8.95;29.15;101856.09;4959758;28;97568;-75
2021/04/03 10:32:58;;;;;;;2.17;2.00;;;;;;;9.00;29.21;101848.34;4957410;28;97869;-76
2021/04/03 10:35:24;;;;;;;2.28;2.10;;;;;;;8.96;28.90;101838.44;4992910;28;100745;-76
2021/04/03 10:37:51;;;;;;;2.55;2.55;;;;;;;8.94;28.74;101848.06;4977710;28;97681;-75
2021/04/03 10:40:18;;;;;;;2.50;2.30;;;;;;;8.94;28.72;101858.69;4960313;28;97130;-76
2021/04/03 10:42:45;;;;;;;2.38;2.28;;;;;;;9.01;28.41;101845.75;4962120;28;96997;-76
2021/04/03 10:45:12;;;;;;;3.25;2.42;;;;;;;9.11;28.66;101848.00;4979555;28;98921;-75
2021/04/03 10:47:39;;;;;;;2.10;2.05;;;;;;;9.17;28.46;101848.25;4978320;28;98743;-76
2021/04/03 10:50:08;;;;;;;2.38;2.28;;;;;;;9.21;28.35;101854.59;4977474;28;97322;-75
2021/04/03 10:52:35;;;;;;;2.40;2.30;;;;;;;9.23;28.40;101844.94;4961525;28;97299;-75
2021/04/03 10:55:03;;;;;;;2.88;2.78;;;;;;;9.23;27.96;101858.22;4960127;28;100450;-75
2021/04/03 10:57:30;;;;;;;2.97;2.72;;;;;;;9.29;28.03;101852.28;4978467;28;98843;-76
2021/04/03 10:59:57;;;;;;;3.08;2.88;;;;;;;9.37;28.15;101842.91;4978665;28;97318;-75
2021/04/03 11:02:23;;;;;;;3.33;2.42;;;;;;;9.41;27.93;101847.50;4960694;28;97418;-76
2021/04/03 11:04:50;;;;;;;2.47;2.28;;;;;;;9.44;27.91;101847.63;4978526;28;97621;-76
2021/04/03 11:07:18;;;;;;;2.65;2.45;;;;;;;9.50;27.93;101853.25;4977712;28;97488;-75
2021/04/03 11:09:45;;;;;;;3.65;2.55;;;;;;;9.47;27.82;101850.41;4978227;28;97242;-75
2021/04/03 11:12:13;;;;;;;2.80;2.60;;;;;;;9.56;27.82;101845.50;4978361;28;97934;-76
2021/04/03 11:14:41;;;;;;;2.78;2.40;;;;;;;9.62;27.59;101852.00;4993298;28;98091;-75
2021/04/03 11:17:08;;;;;;;2.55;2.30;;;;;;;9.65;27.74;101846.81;4962981;28;98035;-76
2021/04/03 11:19:35;;;;;;;2.05;1.95;;;;;;;9.66;27.38;101846.00;4962327;28;97547;-75
2021/04/03 11:22:02;;;;;;;2.85;2.55;;;;;;;9.74;27.79;101855.16;4980961;28;97582;-75
2021/04/03 11:24:30;;;;;;;2.67;2.58;;;;;;;9.68;27.33;101846.94;4981019;28;97109;-75
2021/04/03 11:26:57;;;;;;;2.33;2.15;;;;;;;9.70;27.22;101855.00;4962089;28;100614;-75
2021/04/03 11:29:44;;;;;;;3.05;2.83;;;;;;;9.79;27.36;101856.25;4982205;28;97807;-76
2021/04/03 11:32:10;;;;;;;2.85;2.17;;;;;;;9.81;27.34;101859.88;4982484;28;97383;-75
2021/04/03 11:34:56;;;;;;;2.40;2.30;;;;;;;9.90;27.39;101856.72;4980910;28;97976;-76
2021/04/03 11:37:22;;;;;;;2.88;2.78;;;;;;;10.00;27.32;101857.16;4962425;28;99363;-75